createdAt,value
2023-02-27T00:00:14.382Z,102756.13
2023-02-27T00:02:43.020Z,102758.78
2023-02-27T00:05:11.732Z,102763.03
2023-02-27T00:07:40.164Z,102764.72
2023-02-27T00:10:11.957Z,102758.72
2023-02-27T00:12:40.070Z,102769.00
2023-02-27T00:15:09.513Z,102768.19
2023-02-27T00:17:37.908Z,102775.03
2023-02-27T00:20:07.724Z,102774.19
2023-02-27T00:22:35.745Z,102770.69
2023-02-27T00:25:03.864Z,102763.81
2023-02-27T00:27:33.858Z,102768.94
2023-02-27T00:30:02.022Z,102766.41
2023-02-27T00:32:30.499Z,102764.66
2023-02-27T00:34:58.565Z,102764.63
2023-02-27T00:37:26.718Z,102758.56
2023-02-27T00:39:54.750Z,102762.09
2023-02-27T00:42:22.855Z,102761.16
2023-02-27T00:44:52.420Z,102761.16
2023-02-27T00:47:20.675Z,102759.41
2023-02-27T00:49:48.726Z,102758.53
2023-02-27T00:52:16.865Z,102758.53
2023-02-27T00:54:45.098Z,102757.75
2023-02-27T00:57:13.308Z,102756.88
2023-02-27T00:59:41.404Z,102752.50
2023-02-27T01:02:13.557Z,102754.16
2023-02-27T01:04:42.004Z,102755.00
2023-02-27T01:07:10.514Z,102753.22
2023-02-27T01:09:38.724Z,102758.38
2023-02-27T01:12:07.095Z,102754.03
2023-02-27T01:14:35.464Z,102748.88
2023-02-27T01:17:03.548Z,102744.56
2023-02-27T01:19:33.106Z,102754.88
2023-02-27T01:22:01.254Z,102746.28
2023-02-27T01:24:29.332Z,102755.72
2023-02-27T01:26:57.394Z,102760.00
2023-02-27T01:29:25.449Z,102758.25
2023-02-27T01:31:56.334Z,102753.09
2023-02-27T01:34:24.606Z,102757.41
2023-02-27T01:36:54.063Z,102756.50
2023-02-27T01:39:22.169Z,102758.25
2023-02-27T01:41:50.220Z,102758.25
2023-02-27T01:44:18.272Z,102752.16
2023-02-27T01:46:49.115Z,102758.25
2023-02-27T01:49:20.960Z,102757.34
2023-02-27T01:51:53.204Z,102760.78
2023-02-27T01:54:25.260Z,102750.41
2023-02-27T01:56:53.714Z,102756.38
2023-02-27T01:59:22.850Z,102751.19
2023-02-27T02:01:52.241Z,102744.31
2023-02-27T02:04:25.955Z,102752.00
2023-02-27T02:06:59.359Z,102757.16
2023-02-27T02:09:30.964Z,102749.38
2023-02-27T02:12:00.620Z,102750.22
2023-02-27T02:14:28.689Z,102752.75
2023-02-27T02:17:13.273Z,102744.09
2023-02-27T02:20:10.073Z,102747.53
2023-02-27T02:23:07.070Z,102747.47
2023-02-27T02:26:10.066Z,102752.63
2023-02-27T02:29:06.584Z,102752.59
2023-02-27T02:32:01.859Z,102747.38
2023-02-27T02:34:53.808Z,102745.63
2023-02-27T02:37:58.097Z,102743.88
2023-02-27T02:40:36.659Z,102746.44
2023-02-27T02:43:13.524Z,102741.25
2023-02-27T02:45:49.433Z,102749.00
2023-02-27T02:48:22.433Z,102752.41
2023-02-27T02:50:56.191Z,102754.97
2023-02-27T02:53:36.907Z,102745.50
2023-02-27T02:56:11.977Z,102749.78
2023-02-27T02:58:51.060Z,102754.97
2023-02-27T03:01:23.610Z,102754.06
2023-02-27T03:03:56.930Z,102757.44
2023-02-27T03:06:30.864Z,102756.56
2023-02-27T03:09:03.164Z,102755.66
2023-02-27T03:11:37.505Z,102762.53
2023-02-27T03:14:11.905Z,102759.03
2023-02-27T03:16:44.157Z,102757.25
2023-02-27T03:19:16.057Z,102757.25
2023-02-27T03:21:48.794Z,102759.78
2023-02-27T03:24:22.091Z,102754.59
2023-02-27T03:26:55.066Z,102768.38
2023-02-27T03:29:31.445Z,102765.84
2023-02-27T03:32:05.003Z,102768.59
2023-02-27T03:34:36.511Z,102763.31
2023-02-27T03:37:10.730Z,102758.97
2023-02-27T03:39:46.824Z,102759.78
2023-02-27T03:42:25.708Z,102761.44
2023-02-27T03:45:01.075Z,102764.91
2023-02-27T03:47:29.818Z,102766.59
2023-02-27T03:49:58.337Z,102763.16
2023-02-27T03:52:29.768Z,102764.78
2023-02-27T03:55:03.070Z,102769.09
2023-02-27T03:57:33.247Z,102771.59
2023-02-27T04:00:01.906Z,102767.31
2023-02-27T04:02:30.192Z,102773.44
2023-02-27T04:04:58.293Z,102775.06
2023-02-27T04:07:35.672Z,102775.88
2023-02-27T04:10:22.898Z,102783.63
2023-02-27T04:13:18.384Z,102780.09
2023-02-27T04:16:06.576Z,102789.56
2023-02-27T04:18:55.173Z,102786.00
2023-02-27T04:21:31.848Z,102791.13
2023-02-27T04:24:10.445Z,102788.50
2023-02-27T04:26:45.277Z,102792.78
2023-02-27T04:29:19.761Z,102800.47
2023-02-27T04:31:55.740Z,102797.91
2023-02-27T04:34:31.698Z,102795.34
2023-02-27T04:37:04.148Z,102795.34
2023-02-27T04:39:33.681Z,102791.84
2023-02-27T04:42:05.099Z,102795.28
2023-02-27T04:44:37.365Z,102798.72
2023-02-27T04:47:08.766Z,102804.84
2023-02-27T04:49:43.219Z,102806.50
2023-02-27T04:52:15.084Z,102810.78
2023-02-27T04:54:48.844Z,102810.63
2023-02-27T04:57:21.014Z,102814.91
2023-02-27T04:59:56.182Z,102820.84
2023-02-27T05:02:28.419Z,102815.69
2023-02-27T05:04:58.741Z,102816.56
2023-02-27T05:07:31.443Z,102818.28
2023-02-27T05:10:04.162Z,102824.25
2023-02-27T05:12:38.341Z,102820.84
2023-02-27T05:15:13.216Z,102820.75
2023-02-27T05:17:48.595Z,102827.63
2023-02-27T05:20:18.548Z,102830.19
2023-02-27T05:22:50.628Z,102827.56
2023-02-27T05:25:28.174Z,102839.56
2023-02-27T05:28:03.253Z,102842.16
2023-02-27T05:30:39.670Z,102839.56
2023-02-27T05:33:14.995Z,102842.06
2023-02-27T05:35:49.846Z,102849.78
2023-02-27T05:38:23.372Z,102848.06
2023-02-27T05:40:56.575Z,102845.47
2023-02-27T05:43:30.096Z,102851.47
2023-02-27T05:46:03.470Z,102849.75
2023-02-27T05:48:36.669Z,102842.97
2023-02-27T05:51:09.217Z,102848.03
2023-02-27T05:53:46.791Z,102852.31
2023-02-27T05:56:20.007Z,102842.84
2023-02-27T05:58:53.636Z,102847.09
2023-02-27T06:01:23.401Z,102847.97
2023-02-27T06:03:54.473Z,102850.53
2023-02-27T06:06:24.264Z,102856.50
2023-02-27T06:08:52.635Z,102853.91
2023-02-27T06:11:20.654Z,102852.19
2023-02-27T06:13:49.134Z,102854.78
2023-02-27T06:16:19.907Z,102860.91
2023-02-27T06:18:49.380Z,102865.09
2023-02-27T06:21:17.670Z,102865.06
2023-02-27T06:23:45.786Z,102864.28
2023-02-27T06:26:14.431Z,102875.38
2023-02-27T06:28:42.861Z,102876.22
2023-02-27T06:31:10.913Z,102877.97
2023-02-27T06:33:39.027Z,102877.94
2023-02-27T06:36:08.706Z,102882.25
2023-02-27T06:38:37.232Z,102878.88
2023-02-27T06:41:05.516Z,102892.59
2023-02-27T06:43:34.908Z,102889.31
2023-02-27T06:46:03.147Z,102892.69
2023-02-27T06:48:31.237Z,102892.72
2023-02-27T06:50:59.462Z,102894.44
2023-02-27T06:53:28.957Z,102897.81
2023-02-27T06:55:57.072Z,102896.25
2023-02-27T06:58:25.887Z,102903.16
2023-02-27T07:00:54.039Z,102898.00
2023-02-27T07:03:22.149Z,102891.19
2023-02-27T07:05:50.442Z,102904.97
2023-02-27T07:08:21.256Z,102907.56
2023-02-27T07:10:50.858Z,102907.59
2023-02-27T07:13:19.873Z,102910.19
2023-02-27T07:15:48.425Z,102908.59
2023-02-27T07:18:16.700Z,102905.19
2023-02-27T07:20:44.804Z,102910.38
2023-02-27T07:23:12.950Z,102910.56
2023-02-27T07:25:40.992Z,102914.09
2023-02-27T07:28:10.428Z,102915.91
2023-02-27T07:30:39.050Z,102917.78
2023-02-27T07:33:07.246Z,102919.75
2023-02-27T07:35:35.621Z,102918.38
2023-02-27T07:38:03.829Z,102914.59
2023-02-27T07:40:31.863Z,102916.03
2023-02-27T07:42:59.936Z,102927.78
2023-02-27T07:45:32.524Z,102922.88
2023-02-27T07:48:00.614Z,102930.03
2023-02-27T07:50:31.154Z,102921.91
2023-02-27T07:52:59.266Z,102919.28
2023-02-27T07:55:27.541Z,102925.31
2023-02-27T07:57:55.593Z,102924.81
2023-02-27T08:00:23.841Z,102928.56
2023-02-27T08:02:53.285Z,102933.97
2023-02-27T08:05:21.425Z,102932.53
2023-02-27T08:07:49.623Z,102931.00
2023-02-27T08:10:18.325Z,102932.72
2023-02-27T08:12:49.361Z,102931.84
2023-02-27T08:15:18.206Z,102927.53
2023-02-27T08:17:47.192Z,102937.03
2023-02-27T08:20:17.214Z,102936.19
2023-02-27T08:22:45.279Z,102931.84
2023-02-27T08:25:13.407Z,102940.56
2023-02-27T08:27:41.753Z,102947.50
2023-02-27T08:30:12.702Z,102941.44
2023-02-27T08:32:44.916Z,102944.91
2023-02-27T08:35:13.123Z,102937.13
2023-02-27T08:37:42.712Z,102945.72
2023-02-27T08:40:12.012Z,102943.13
2023-02-27T08:42:40.395Z,102950.06
2023-02-27T08:45:09.823Z,102950.91
2023-02-27T08:47:38.324Z,102948.13
2023-02-27T08:50:12.418Z,102957.75
2023-02-27T08:52:41.948Z,102955.88
2023-02-27T08:55:10.849Z,102958.44
2023-02-27T08:57:38.886Z,102956.84
2023-02-27T09:00:10.410Z,102953.28
2023-02-27T09:02:38.661Z,102948.88
2023-02-27T09:05:07.442Z,102954.03
2023-02-27T09:07:35.499Z,102951.50
2023-02-27T09:10:05.807Z,102957.47
2023-02-27T09:12:36.756Z,102960.06
2023-02-27T09:15:05.398Z,102957.44
2023-02-27T09:17:33.731Z,102970.59
2023-02-27T09:20:01.865Z,102959.25
2023-02-27T09:22:30.135Z,102963.63
2023-02-27T09:25:00.991Z,102969.63
2023-02-27T09:27:30.441Z,102968.81
2023-02-27T09:29:59.335Z,102970.44
2023-02-27T09:32:28.850Z,102966.88
2023-02-27T09:34:56.963Z,102966.91
2023-02-27T09:37:25.353Z,102965.22
2023-02-27T09:39:53.538Z,102964.31
2023-02-27T09:42:24.945Z,102968.53
2023-02-27T09:44:58.163Z,102959.78
2023-02-27T09:47:30.202Z,102969.19
2023-02-27T09:50:04.292Z,102967.38
2023-02-27T09:52:34.322Z,102966.41
2023-02-27T09:55:03.060Z,102970.63
2023-02-27T09:57:44.175Z,102964.47
2023-02-27T10:00:29.309Z,102969.69
2023-02-27T10:03:08.524Z,102967.97
2023-02-27T10:05:42.733Z,102968.84
2023-02-27T10:08:18.417Z,102966.81
2023-02-27T10:11:00.903Z,102974.63
2023-02-27T10:13:43.928Z,102963.31
2023-02-27T10:16:14.621Z,102959.66
2023-02-27T10:18:52.104Z,102967.81
2023-02-27T10:21:25.693Z,102957.41
2023-02-27T10:24:00.355Z,102952.72
2023-02-27T10:26:31.207Z,102951.63
2023-02-27T10:29:03.561Z,102955.69
2023-02-27T10:31:36.131Z,102952.88
2023-02-27T10:34:04.346Z,102958.44
2023-02-27T10:36:35.101Z,102946.47
2023-02-27T10:39:07.432Z,102951.47
2023-02-27T10:41:37.269Z,102947.34
2023-02-27T10:44:06.162Z,102942.66
2023-02-27T10:46:38.319Z,102943.66
2023-02-27T10:49:18.634Z,102940.03
2023-02-27T10:51:48.456Z,102938.88
2023-02-27T10:54:23.599Z,102933.34
2023-02-27T10:56:53.686Z,102927.56
2023-02-27T10:59:24.590Z,102928.56
2023-02-27T11:01:56.347Z,102927.50
2023-02-27T11:04:26.938Z,102922.63
2023-02-27T11:06:55.972Z,102920.34
2023-02-27T11:09:27.029Z,102914.34
2023-02-27T11:11:55.797Z,102913.63
2023-02-27T11:14:29.999Z,102902.22
2023-02-27T11:17:00.978Z,102895.28
2023-02-27T11:19:34.973Z,102902.13
2023-02-27T11:22:08.559Z,102893.47
2023-02-27T11:24:36.820Z,102894.38
2023-02-27T11:27:19.104Z,102909.09
2023-02-27T11:29:58.148Z,102887.06
2023-02-27T11:32:31.011Z,102891.28
2023-02-27T11:34:58.869Z,102884.66
2023-02-27T11:37:31.746Z,102880.94
2023-02-27T11:40:13.897Z,102872.50
2023-02-27T11:42:46.584Z,102874.88
2023-02-27T11:46:11.716Z,102880.69
2023-02-27T11:48:21.724Z,102888.66
2023-02-27T11:51:27.059Z,102877.47
2023-02-27T11:54:19.369Z,102869.38
2023-02-27T11:56:50.508Z,102870.91
2023-02-27T11:59:28.775Z,102870.41
2023-02-27T12:02:02.733Z,102868.69
2023-02-27T12:04:44.639Z,102868.38
2023-02-27T12:07:19.338Z,102863.59
2023-02-27T12:09:53.139Z,102860.25
2023-02-27T12:12:25.331Z,102863.81
2023-02-27T12:15:01.694Z,102865.94
2023-02-27T12:17:35.080Z,102861.09
2023-02-27T12:20:24.746Z,102857.03
2023-02-27T12:22:55.147Z,102866.50
2023-02-27T12:25:34.952Z,102858.59
2023-02-27T12:28:20.004Z,102853.38
2023-02-27T12:31:01.684Z,102849.81
2023-02-27T12:33:39.832Z,102855.69
2023-02-27T12:36:13.184Z,102862.16
2023-02-27T12:38:41.760Z,102852.91
2023-02-27T12:41:43.938Z,102868.53
2023-02-27T12:44:37.014Z,102859.19
2023-02-27T12:47:18.855Z,102861.97
2023-02-27T12:49:55.942Z,102850.84
2023-02-27T12:52:35.295Z,102860.94
2023-02-27T12:55:11.131Z,102869.91
2023-02-27T12:57:49.863Z,102866.94
2023-02-27T13:00:21.437Z,102856.44
2023-02-27T13:03:03.757Z,102858.53
2023-02-27T13:05:38.616Z,102856.47
2023-02-27T13:08:21.850Z,102855.28
2023-02-27T13:10:55.341Z,102846.66
2023-02-27T13:13:29.527Z,102847.91
2023-02-27T13:16:04.189Z,102846.88
2023-02-27T13:18:43.511Z,102844.34
2023-02-27T13:21:14.735Z,102853.38
2023-02-27T13:23:59.617Z,102846.22
2023-02-27T13:26:31.917Z,102839.81
2023-02-27T13:29:00.994Z,102835.16
2023-02-27T13:31:37.318Z,102831.13
2023-02-27T13:34:17.605Z,102832.44
2023-02-27T13:36:50.118Z,102830.22
2023-02-27T13:39:56.077Z,102830.53
2023-02-27T13:42:54.307Z,102831.81
2023-02-27T13:46:02.021Z,102821.94
2023-02-27T13:48:45.899Z,102816.28
2023-02-27T13:51:53.832Z,102822.13
2023-02-27T13:54:26.342Z,102817.97
2023-02-27T13:57:21.363Z,102825.03
2023-02-27T13:59:55.596Z,102828.66
2023-02-27T14:02:37.491Z,102827.53
2023-02-27T14:05:09.646Z,102833.50
2023-02-27T14:07:54.096Z,102833.50
2023-02-27T14:10:25.150Z,102842.31
2023-02-27T14:12:54.746Z,102840.75
2023-02-27T14:15:53.636Z,102838.63
2023-02-27T14:18:58.550Z,102834.09
2023-02-27T14:21:57.765Z,102837.66
2023-02-27T14:24:33.390Z,102842.47
2023-02-27T14:27:02.104Z,102841.81
2023-02-27T14:29:34.561Z,102835.72
2023-02-27T14:32:06.966Z,102839.06
2023-02-27T14:34:37.444Z,102843.75
2023-02-27T14:37:08.433Z,102835.16
2023-02-27T14:39:39.732Z,102838.72
2023-02-27T14:42:26.630Z,102838.06
2023-02-27T14:44:56.949Z,102831.09
2023-02-27T14:47:30.633Z,102831.25
2023-02-27T14:49:59.217Z,102831.81
2023-02-27T14:52:30.414Z,102841.22
2023-02-27T14:55:13.626Z,102843.19
2023-02-27T14:57:41.805Z,102834.41
2023-02-27T15:00:36.314Z,102829.22
2023-02-27T15:03:17.945Z,102834.75
2023-02-27T15:05:46.658Z,102823.66
2023-02-27T15:08:21.166Z,102828.19
2023-02-27T15:10:49.448Z,102815.94
2023-02-27T15:13:26.970Z,102816.84
2023-02-27T15:16:34.978Z,102819.53
2023-02-27T15:19:15.126Z,102817.03
2023-02-27T15:21:46.058Z,102817.09
2023-02-27T15:24:31.267Z,102810.13
2023-02-27T15:27:04.036Z,102810.16
2023-02-27T15:29:36.840Z,102812.78
2023-02-27T15:32:07.705Z,102807.53
2023-02-27T15:34:36.716Z,102811.22
2023-02-27T15:37:07.463Z,102811.28
2023-02-27T15:39:36.749Z,102819.09
2023-02-27T15:42:09.188Z,102813.16
2023-02-27T15:44:42.475Z,102819.34
2023-02-27T15:47:15.932Z,102820.28
2023-02-27T15:49:44.109Z,102823.88
2023-02-27T15:52:18.408Z,102820.38
2023-02-27T15:54:52.027Z,102821.25
2023-02-27T15:57:21.735Z,102824.72
2023-02-27T15:59:52.359Z,102839.59
2023-02-27T16:02:25.290Z,102831.00
2023-02-27T16:04:53.773Z,102838.00
2023-02-27T16:07:24.755Z,102838.00
2023-02-27T16:09:56.220Z,102836.28
2023-02-27T16:12:29.787Z,102840.69
2023-02-27T16:15:23.555Z,102838.91
2023-02-27T16:17:59.263Z,102834.59
2023-02-27T16:20:42.796Z,102843.31
2023-02-27T16:23:20.395Z,102837.31
2023-02-27T16:26:08.184Z,102840.84
2023-02-27T16:28:47.044Z,102840.91
2023-02-27T16:31:26.963Z,102841.72
2023-02-27T16:34:01.658Z,102840.91
2023-02-27T16:36:31.923Z,102841.84
2023-02-27T16:39:00.321Z,102841.84
2023-02-27T16:41:29.772Z,102850.50
2023-02-27T16:43:58.088Z,102845.31
2023-02-27T16:46:26.375Z,102843.66
2023-02-27T16:48:57.180Z,102847.13
2023-02-27T16:51:30.608Z,102849.84
2023-02-27T16:53:59.278Z,102842.00
2023-02-27T16:56:37.716Z,102849.00
2023-02-27T16:59:06.843Z,102850.78
2023-02-27T17:01:34.981Z,102848.19
2023-02-27T17:04:06.797Z,102845.59
2023-02-27T17:06:40.382Z,102848.25
2023-02-27T17:09:10.437Z,102854.38
2023-02-27T17:11:38.678Z,102853.47
2023-02-27T17:14:06.713Z,102857.81
2023-02-27T17:16:34.881Z,102858.72
2023-02-27T17:19:03.007Z,102868.28
2023-02-27T17:21:31.216Z,102869.16
2023-02-27T17:24:00.619Z,102870.09
2023-02-27T17:26:28.985Z,102869.28
2023-02-27T17:28:58.572Z,102869.28
2023-02-27T17:31:27.300Z,102865.84
2023-02-27T17:33:55.533Z,102869.38
2023-02-27T17:36:24.120Z,102868.50
2023-02-27T17:38:56.309Z,102865.06
2023-02-27T17:41:25.910Z,102866.78
2023-02-27T17:43:55.462Z,102876.34
2023-02-27T17:46:24.904Z,102885.91
2023-02-27T17:48:54.130Z,102878.09
2023-02-27T17:51:22.283Z,102877.28
2023-02-27T17:53:52.879Z,102884.22
2023-02-27T17:56:21.034Z,102885.09
2023-02-27T17:58:50.675Z,102880.75
2023-02-27T18:01:22.904Z,102885.06
2023-02-27T18:03:51.148Z,102896.38
2023-02-27T18:06:19.996Z,102889.44
2023-02-27T18:08:48.071Z,102891.19
2023-02-27T18:11:18.979Z,102897.25
2023-02-27T18:13:47.685Z,102898.09
2023-02-27T18:16:17.518Z,102896.38
2023-02-27T18:18:46.160Z,102896.41
2023-02-27T18:21:16.252Z,102907.66
2023-02-27T18:23:44.873Z,102899.00
2023-02-27T18:26:28.553Z,102909.38
2023-02-27T18:29:02.640Z,102904.19
2023-02-27T18:31:37.555Z,102908.53
2023-02-27T18:34:06.132Z,102913.72
2023-02-27T18:36:34.819Z,102921.50
2023-02-27T18:39:06.992Z,102913.72
2023-02-27T18:41:35.593Z,102908.53
2023-02-27T18:44:04.383Z,102916.28
2023-02-27T18:46:32.763Z,102911.97
2023-02-27T18:49:02.554Z,102915.41
2023-02-27T18:51:30.700Z,102917.09
2023-02-27T18:54:00.143Z,102916.22
2023-02-27T18:56:30.402Z,102924.00
2023-02-27T18:59:02.110Z,102924.84
2023-02-27T19:01:32.597Z,102922.22
2023-02-27T19:04:04.915Z,102926.56
2023-02-27T19:06:34.812Z,102935.19
2023-02-27T19:09:05.301Z,102923.06
2023-02-27T19:11:34.541Z,102927.41
2023-02-27T19:14:04.723Z,102923.06
2023-02-27T19:16:33.225Z,102938.66
2023-02-27T19:19:04.977Z,102930.84
2023-02-27T19:21:33.984Z,102937.78
2023-02-27T19:24:02.647Z,102932.56
2023-02-27T19:26:32.815Z,102933.41
2023-02-27T19:29:00.856Z,102936.03
2023-02-27T19:31:29.052Z,102938.59
2023-02-27T19:33:57.220Z,102937.72
2023-02-27T19:36:28.829Z,102940.31
2023-02-27T19:38:57.764Z,102941.19
2023-02-27T19:41:26.598Z,102941.16
2023-02-27T19:43:55.441Z,102949.81
2023-02-27T19:46:25.421Z,102942.03
2023-02-27T19:48:54.639Z,102946.31
2023-02-27T19:51:22.927Z,102954.94
2023-02-27T19:53:53.770Z,102952.34
2023-02-27T19:56:24.499Z,102962.72
2023-02-27T19:58:53.995Z,102951.50
2023-02-27T20:01:26.665Z,102953.19
2023-02-27T20:03:57.629Z,102951.44
2023-02-27T20:06:29.043Z,102963.56
2023-02-27T20:08:59.783Z,102959.22
2023-02-27T20:11:30.695Z,102964.38
2023-02-27T20:13:59.149Z,102959.19
2023-02-27T20:16:28.794Z,102952.25
2023-02-27T20:18:57.779Z,102960.03
2023-02-27T20:21:26.909Z,102957.41
2023-02-27T20:23:55.821Z,102959.13
2023-02-27T20:26:27.844Z,102956.53
2023-02-27T20:28:57.942Z,102955.63
2023-02-27T20:31:28.897Z,102961.69
2023-02-27T20:34:00.891Z,102947.00
2023-02-27T20:36:29.924Z,102953.88
2023-02-27T20:38:58.205Z,102949.53
2023-02-27T20:41:29.758Z,102944.31
2023-02-27T20:43:58.630Z,102949.47
2023-02-27T20:46:30.448Z,102946.00
2023-02-27T20:49:00.538Z,102945.97
2023-02-27T20:51:31.056Z,102948.53
2023-02-27T20:54:00.964Z,102949.38
2023-02-27T20:56:32.177Z,102944.25
2023-02-27T20:59:02.609Z,102950.28
2023-02-27T21:01:31.384Z,102958.06
2023-02-27T21:04:02.745Z,102953.72
2023-02-27T21:06:32.113Z,102956.28
2023-02-27T21:09:04.731Z,102949.31
2023-02-27T21:11:34.047Z,102954.47
2023-02-27T21:14:06.482Z,102949.28
2023-02-27T21:16:34.542Z,102946.66
2023-02-27T21:19:06.149Z,102953.53
2023-02-27T21:21:35.602Z,102950.00
2023-02-27T21:24:03.999Z,102957.78
2023-02-27T21:26:35.504Z,102959.47
2023-02-27T21:29:06.422Z,102959.41
2023-02-27T21:31:36.471Z,102963.69
2023-02-27T21:34:07.580Z,102970.59
2023-02-27T21:36:37.900Z,102971.41
2023-02-27T21:39:08.072Z,102971.34
2023-02-27T21:41:37.831Z,102976.59
2023-02-27T21:44:08.987Z,102974.81
2023-02-27T21:46:37.035Z,102973.09
2023-02-27T21:49:05.233Z,102968.69
2023-02-27T21:51:40.443Z,102976.47
2023-02-27T21:54:11.958Z,102976.47
2023-02-27T21:56:42.162Z,102973.81
2023-02-27T21:59:10.616Z,102980.72
2023-02-27T22:01:39.672Z,102972.94
2023-02-27T22:04:08.400Z,102974.72
2023-02-27T22:06:36.968Z,102972.94
2023-02-27T22:09:08.047Z,102977.22
2023-02-27T22:11:37.005Z,102977.19
2023-02-27T22:14:07.330Z,102977.16
2023-02-27T22:16:36.156Z,102977.91
2023-02-27T22:19:07.672Z,102972.69
2023-02-27T22:21:36.670Z,102971.84
2023-02-27T22:24:05.058Z,102971.75
2023-02-27T22:26:33.949Z,102971.66
2023-02-27T22:29:02.251Z,102969.94
2023-02-27T22:31:33.847Z,102972.41
2023-02-27T22:34:04.874Z,102970.53
2023-02-27T22:36:33.910Z,102974.75
2023-02-27T22:39:02.388Z,102978.19
2023-02-27T22:41:33.129Z,102974.59
2023-02-27T22:44:02.659Z,102977.19
2023-02-27T22:46:34.133Z,102981.44
2023-02-27T22:49:04.251Z,102983.16
2023-02-27T22:51:33.024Z,102978.78
2023-02-27T22:54:03.591Z,102979.69
2023-02-27T22:56:33.210Z,102980.41
2023-02-27T22:59:01.491Z,102989.88
2023-02-27T23:01:33.188Z,102989.88
2023-02-27T23:04:03.392Z,102988.06
2023-02-27T23:06:33.289Z,102987.94
2023-02-27T23:09:02.608Z,102993.13
2023-02-27T23:11:31.238Z,102996.56
2023-02-27T23:13:59.428Z,102996.53
2023-02-27T23:16:27.904Z,102994.78
2023-02-27T23:18:59.162Z,102998.22
2023-02-27T23:21:34.323Z,102996.41
2023-02-27T23:24:06.045Z,102993.78
2023-02-27T23:26:37.610Z,102988.59
2023-02-27T23:29:06.275Z,102992.06
2023-02-27T23:31:35.446Z,102993.75
2023-02-27T23:34:05.852Z,102989.53
2023-02-27T23:36:34.324Z,102993.78
2023-02-27T23:39:03.009Z,102992.06
2023-02-27T23:41:31.559Z,102998.13
2023-02-27T23:44:01.516Z,102993.78
2023-02-27T23:46:30.577Z,103000.69
2023-02-27T23:48:59.170Z,103010.16
2023-02-27T23:51:30.442Z,103007.53
2023-02-27T23:53:59.031Z,103010.09
2023-02-27T23:56:28.947Z,103007.50
2023-02-27T23:58:58.759Z,103008.38
